Search for airport 
image banner adimage banner ad
image banner ad

DAOR - Bechar / Boudghene Ben Ali Lotfi

Located in , Algeria

ICAO - DAOR, IATA - CBH

Data provided by Airmate  

General information

Coordinates: N31°39'2" W2°15'11"
Elevation is 2657 feet MSL.
 
Rated:
View ratings: [VIEW]


View others Airports in Béchar Province

Operational data

Open for public use
Current time UTC:
Current local time:
Weather
METAR: DAOR 130000Z 13006KT CAVOK 34/M00 Q1017
TAF: TAF DAOR 122300Z 1300/1309 11008KT CAVOK
View NOTAMs / SUP AIP / TFR affecting this airport [VIEW]
Communications frequencies: [VIEW]

Runways:

RWY identifierQFULength (ft)Width (ft)SurfaceLDA (ft)
0660°12245148ASP
24240°11883148
18180°9843148
36360°9843148

Airport contact information

Address: Algeria

Satellite view of DAOR